sensor_id;sensor_type;location;lat;lon;timestamp;P1;durP1;ratioP1;P2;durP2;ratioP2
59607;SDS011;45426;44.726;10.390;2023-08-31T00:02:10;2.90;;;1.40;;
59607;SDS011;45426;44.726;10.390;2023-08-31T00:04:36;5.63;;;1.52;;
59607;SDS011;45426;44.726;10.390;2023-08-31T00:07:01;1.88;;;1.40;;
59607;SDS011;45426;44.726;10.390;2023-08-31T00:09:27;2.17;;;1.25;;
59607;SDS011;45426;44.726;10.390;2023-08-31T00:11:54;4.85;;;1.50;;
59607;SDS011;45426;44.726;10.390;2023-08-31T00:14:21;1.77;;;1.30;;
59607;SDS011;45426;44.726;10.390;2023-08-31T00:16:47;1.42;;;1.15;;
59607;SDS011;45426;44.726;10.390;2023-08-31T00:19:13;4.03;;;1.30;;
59607;SDS011;45426;44.726;10.390;2023-08-31T00:21:39;1.67;;;1.13;;
59607;SDS011;45426;44.726;10.390;2023-08-31T00:24:05;2.65;;;1.20;;
59607;SDS011;45426;44.726;10.390;2023-08-31T00:26:31;2.05;;;1.50;;
59607;SDS011;45426;44.726;10.390;2023-08-31T00:28:56;2.33;;;1.27;;
59607;SDS011;45426;44.726;10.390;2023-08-31T00:31:23;2.25;;;1.45;;
59607;SDS011;45426;44.726;10.390;2023-08-31T00:33:48;4.13;;;1.92;;
59607;SDS011;45426;44.726;10.390;2023-08-31T00:36:14;5.43;;;1.50;;
59607;SDS011;45426;44.726;10.390;2023-08-31T00:38:40;1.50;;;1.35;;
59607;SDS011;45426;44.726;10.390;2023-08-31T00:41:05;2.13;;;1.10;;
59607;SDS011;45426;44.726;10.390;2023-08-31T00:43:31;2.15;;;1.40;;
59607;SDS011;45426;44.726;10.390;2023-08-31T00:45:57;2.65;;;1.40;;
59607;SDS011;45426;44.726;10.390;2023-08-31T00:48:23;3.53;;;1.45;;
59607;SDS011;45426;44.726;10.390;2023-08-31T00:50:49;2.72;;;1.40;;
59607;SDS011;45426;44.726;10.390;2023-08-31T00:53:16;2.28;;;1.40;;
59607;SDS011;45426;44.726;10.390;2023-08-31T00:55:42;1.80;;;1.23;;
59607;SDS011;45426;44.726;10.390;2023-08-31T00:58:09;2.25;;;1.27;;
59607;SDS011;45426;44.726;10.390;2023-08-31T01:00:58;2.53;;;1.40;;
59607;SDS011;45426;44.726;10.390;2023-08-31T01:14:19;3.17;;;1.43;;
59607;SDS011;45426;44.726;10.390;2023-08-31T01:16:50;1.63;;;1.10;;
59607;SDS011;45426;44.726;10.390;2023-08-31T01:22:39;3.45;;;1.50;;
59607;SDS011;45426;44.726;10.390;2023-08-31T01:25:08;2.90;;;1.40;;
59607;SDS011;45426;44.726;10.390;2023-08-31T01:27:35;2.50;;;1.50;;
59607;SDS011;45426;44.726;10.390;2023-08-31T01:30:03;1.77;;;1.30;;
59607;SDS011;45426;44.726;10.390;2023-08-31T01:32:29;2.38;;;1.50;;
59607;SDS011;45426;44.726;10.390;2023-08-31T01:34:56;1.23;;;1.00;;
59607;SDS011;45426;44.726;10.390;2023-08-31T01:37:47;2.50;;;1.40;;
59607;SDS011;45426;44.726;10.390;2023-08-31T01:40:17;2.22;;;1.33;;
59607;SDS011;45426;44.726;10.390;2023-08-31T01:42:48;2.75;;;1.40;;
59607;SDS011;45426;44.726;10.390;2023-08-31T01:45:15;2.70;;;1.30;;
59607;SDS011;45426;44.726;10.390;2023-08-31T01:47:45;1.77;;;1.20;;
59607;SDS011;45426;44.726;10.390;2023-08-31T01:50:11;3.08;;;1.35;;
59607;SDS011;45426;44.726;10.390;2023-08-31T01:52:36;2.60;;;1.23;;
59607;SDS011;45426;44.726;10.390;2023-08-31T01:55:02;1.30;;;1.17;;
59607;SDS011;45426;44.726;10.390;2023-08-31T01:57:28;4.43;;;1.33;;
59607;SDS011;45426;44.726;10.390;2023-08-31T01:59:54;2.25;;;1.30;;
59607;SDS011;45426;44.726;10.390;2023-08-31T02:02:19;2.88;;;1.70;;
59607;SDS011;45426;44.726;10.390;2023-08-31T02:04:45;3.33;;;1.77;;
59607;SDS011;45426;44.726;10.390;2023-08-31T02:07:11;3.85;;;1.30;;
59607;SDS011;45426;44.726;10.390;2023-08-31T02:09:36;2.88;;;1.35;;
59607;SDS011;45426;44.726;10.390;2023-08-31T02:12:02;2.33;;;1.35;;
59607;SDS011;45426;44.726;10.390;2023-08-31T02:14:29;3.35;;;1.60;;
59607;SDS011;45426;44.726;10.390;2023-08-31T02:16:55;4.65;;;2.10;;
59607;SDS011;45426;44.726;10.390;2023-08-31T02:19:20;3.83;;;2.10;;
59607;SDS011;45426;44.726;10.390;2023-08-31T02:21:45;5.20;;;1.98;;
59607;SDS011;45426;44.726;10.390;2023-08-31T02:24:11;3.70;;;1.95;;
59607;SDS011;45426;44.726;10.390;2023-08-31T02:26:36;2.42;;;1.90;;
59607;SDS011;45426;44.726;10.390;2023-08-31T02:29:02;4.13;;;2.03;;
59607;SDS011;45426;44.726;10.390;2023-08-31T02:31:28;3.25;;;1.88;;
59607;SDS011;45426;44.726;10.390;2023-08-31T02:33:54;4.03;;;2.05;;
59607;SDS011;45426;44.726;10.390;2023-08-31T02:36:19;4.07;;;1.95;;
59607;SDS011;45426;44.726;10.390;2023-08-31T02:38:46;2.30;;;1.77;;
59607;SDS011;45426;44.726;10.390;2023-08-31T02:41:11;3.50;;;1.75;;
59607;SDS011;45426;44.726;10.390;2023-08-31T02:43:38;3.72;;;1.80;;
59607;SDS011;45426;44.726;10.390;2023-08-31T02:46:04;3.95;;;1.70;;
59607;SDS011;45426;44.726;10.390;2023-08-31T02:48:31;4.63;;;1.80;;
59607;SDS011;45426;44.726;10.390;2023-08-31T02:50:57;3.35;;;1.90;;
59607;SDS011;45426;44.726;10.390;2023-08-31T02:53:26;4.35;;;1.75;;
59607;SDS011;45426;44.726;10.390;2023-08-31T02:55:54;5.70;;;1.80;;
59607;SDS011;45426;44.726;10.390;2023-08-31T02:58:20;3.65;;;2.00;;
59607;SDS011;45426;44.726;10.390;2023-08-31T03:00:45;4.50;;;2.10;;
59607;SDS011;45426;44.726;10.390;2023-08-31T03:03:13;5.20;;;1.80;;
59607;SDS011;45426;44.726;10.390;2023-08-31T03:05:40;2.25;;;1.83;;
59607;SDS011;45426;44.726;10.390;2023-08-31T03:08:06;2.08;;;1.73;;
59607;SDS011;45426;44.726;10.390;2023-08-31T03:10:31;5.18;;;2.00;;
59607;SDS011;45426;44.726;10.390;2023-08-31T03:12:56;5.03;;;2.10;;
59607;SDS011;45426;44.726;10.390;2023-08-31T03:15:23;6.78;;;2.08;;
59607;SDS011;45426;44.726;10.390;2023-08-31T03:17:49;3.40;;;1.95;;
59607;SDS011;45426;44.726;10.390;2023-08-31T03:20:14;4.35;;;2.05;;
59607;SDS011;45426;44.726;10.390;2023-08-31T03:22:40;4.88;;;1.98;;
59607;SDS011;45426;44.726;10.390;2023-08-31T03:25:05;4.32;;;2.10;;
59607;SDS011;45426;44.726;10.390;2023-08-31T03:27:31;5.70;;;2.00;;
59607;SDS011;45426;44.726;10.390;2023-08-31T03:29:57;4.40;;;2.10;;
59607;SDS011;45426;44.726;10.390;2023-08-31T03:32:22;5.20;;;2.30;;
59607;SDS011;45426;44.726;10.390;2023-08-31T03:34:48;4.32;;;2.53;;
59607;SDS011;45426;44.726;10.390;2023-08-31T03:37:13;5.88;;;2.15;;
59607;SDS011;45426;44.726;10.390;2023-08-31T03:39:39;4.00;;;2.10;;
59607;SDS011;45426;44.726;10.390;2023-08-31T03:42:06;2.60;;;2.10;;
59607;SDS011;45426;44.726;10.390;2023-08-31T03:44:31;4.55;;;2.00;;
59607;SDS011;45426;44.726;10.390;2023-08-31T03:46:57;4.18;;;1.92;;
59607;SDS011;45426;44.726;10.390;2023-08-31T03:49:22;3.45;;;2.00;;
59607;SDS011;45426;44.726;10.390;2023-08-31T03:51:47;5.75;;;2.28;;
59607;SDS011;45426;44.726;10.390;2023-08-31T03:54:13;4.50;;;2.40;;
59607;SDS011;45426;44.726;10.390;2023-08-31T03:56:39;4.43;;;2.13;;
59607;SDS011;45426;44.726;10.390;2023-08-31T03:59:05;5.43;;;2.20;;
59607;SDS011;45426;44.726;10.390;2023-08-31T04:01:30;4.13;;;2.10;;
59607;SDS011;45426;44.726;10.390;2023-08-31T04:03:56;4.22;;;2.28;;
59607;SDS011;45426;44.726;10.390;2023-08-31T04:06:21;5.22;;;2.22;;
59607;SDS011;45426;44.726;10.390;2023-08-31T04:08:47;3.97;;;2.30;;
59607;SDS011;45426;44.726;10.390;2023-08-31T04:11:12;4.18;;;2.20;;
59607;SDS011;45426;44.726;10.390;2023-08-31T04:13:37;5.47;;;2.35;;
59607;SDS011;45426;44.726;10.390;2023-08-31T04:16:03;4.85;;;2.42;;
59607;SDS011;45426;44.726;10.390;2023-08-31T04:18:28;7.13;;;2.72;;
59607;SDS011;45426;44.726;10.390;2023-08-31T04:20:54;5.82;;;2.40;;
59607;SDS011;45426;44.726;10.390;2023-08-31T04:23:20;5.05;;;2.40;;
59607;SDS011;45426;44.726;10.390;2023-08-31T04:25:46;6.03;;;2.90;;
59607;SDS011;45426;44.726;10.390;2023-08-31T04:28:12;5.07;;;2.30;;
59607;SDS011;45426;44.726;10.390;2023-08-31T04:30:38;4.75;;;2.33;;
59607;SDS011;45426;44.726;10.390;2023-08-31T04:33:05;5.30;;;2.38;;
59607;SDS011;45426;44.726;10.390;2023-08-31T04:35:31;5.43;;;2.55;;
59607;SDS011;45426;44.726;10.390;2023-08-31T04:37:57;7.18;;;2.70;;
59607;SDS011;45426;44.726;10.390;2023-08-31T04:40:23;5.05;;;2.25;;
59607;SDS011;45426;44.726;10.390;2023-08-31T04:42:49;5.47;;;2.50;;
59607;SDS011;45426;44.726;10.390;2023-08-31T04:45:14;6.93;;;2.40;;
59607;SDS011;45426;44.726;10.390;2023-08-31T04:47:40;4.63;;;2.55;;
59607;SDS011;45426;44.726;10.390;2023-08-31T04:50:06;5.82;;;2.50;;
59607;SDS011;45426;44.726;10.390;2023-08-31T04:52:32;6.70;;;2.60;;
59607;SDS011;45426;44.726;10.390;2023-08-31T04:55:00;7.18;;;2.83;;
59607;SDS011;45426;44.726;10.390;2023-08-31T04:57:25;6.88;;;2.60;;
59607;SDS011;45426;44.726;10.390;2023-08-31T04:59:51;5.53;;;2.47;;
59607;SDS011;45426;44.726;10.390;2023-08-31T05:02:16;6.22;;;2.70;;
59607;SDS011;45426;44.726;10.390;2023-08-31T05:04:42;7.15;;;2.70;;
59607;SDS011;45426;44.726;10.390;2023-08-31T05:07:07;5.88;;;2.55;;
59607;SDS011;45426;44.726;10.390;2023-08-31T05:09:33;5.07;;;2.50;;
59607;SDS011;45426;44.726;10.390;2023-08-31T05:12:00;4.28;;;2.33;;
59607;SDS011;45426;44.726;10.390;2023-08-31T05:14:29;5.57;;;2.78;;
59607;SDS011;45426;44.726;10.390;2023-08-31T05:16:55;4.75;;;2.53;;
59607;SDS011;45426;44.726;10.390;2023-08-31T05:19:21;7.82;;;2.75;;
59607;SDS011;45426;44.726;10.390;2023-08-31T05:21:46;7.40;;;2.70;;
59607;SDS011;45426;44.726;10.390;2023-08-31T05:24:12;6.38;;;3.00;;
59607;SDS011;45426;44.726;10.390;2023-08-31T05:26:38;5.35;;;2.90;;
59607;SDS011;45426;44.726;10.390;2023-08-31T05:29:04;6.93;;;2.90;;
59607;SDS011;45426;44.726;10.390;2023-08-31T05:31:30;4.88;;;2.50;;
59607;SDS011;45426;44.726;10.390;2023-08-31T05:33:55;6.00;;;2.78;;
59607;SDS011;45426;44.726;10.390;2023-08-31T05:36:21;9.32;;;2.90;;
59607;SDS011;45426;44.726;10.390;2023-08-31T05:38:46;8.25;;;2.88;;
59607;SDS011;45426;44.726;10.390;2023-08-31T05:41:12;4.07;;;2.90;;
59607;SDS011;45426;44.726;10.390;2023-08-31T05:43:38;6.28;;;3.00;;
59607;SDS011;45426;44.726;10.390;2023-08-31T05:46:06;7.70;;;2.80;;
59607;SDS011;45426;44.726;10.390;2023-08-31T05:48:33;5.75;;;2.83;;
59607;SDS011;45426;44.726;10.390;2023-08-31T05:50:59;5.30;;;2.55;;
59607;SDS011;45426;44.726;10.390;2023-08-31T05:53:24;6.57;;;2.70;;
59607;SDS011;45426;44.726;10.390;2023-08-31T05:55:50;4.47;;;2.75;;
59607;SDS011;45426;44.726;10.390;2023-08-31T05:58:15;5.72;;;2.83;;
59607;SDS011;45426;44.726;10.390;2023-08-31T06:00:41;5.93;;;2.60;;
59607;SDS011;45426;44.726;10.390;2023-08-31T06:03:06;4.53;;;2.90;;
59607;SDS011;45426;44.726;10.390;2023-08-31T06:05:32;7.13;;;2.88;;
59607;SDS011;45426;44.726;10.390;2023-08-31T06:07:58;5.93;;;2.65;;
59607;SDS011;45426;44.726;10.390;2023-08-31T06:10:24;6.47;;;2.80;;
59607;SDS011;45426;44.726;10.390;2023-08-31T06:12:50;5.93;;;2.83;;
59607;SDS011;45426;44.726;10.390;2023-08-31T06:15:16;4.53;;;2.70;;
59607;SDS011;45426;44.726;10.390;2023-08-31T06:17:42;4.25;;;2.58;;
59607;SDS011;45426;44.726;10.390;2023-08-31T06:20:08;7.80;;;2.70;;
59607;SDS011;45426;44.726;10.390;2023-08-31T06:22:34;4.60;;;2.45;;
59607;SDS011;45426;44.726;10.390;2023-08-31T06:24:59;6.22;;;2.60;;
59607;SDS011;45426;44.726;10.390;2023-08-31T06:27:25;4.53;;;2.60;;
59607;SDS011;45426;44.726;10.390;2023-08-31T06:29:51;5.38;;;2.88;;
59607;SDS011;45426;44.726;10.390;2023-08-31T06:32:17;6.72;;;3.10;;
59607;SDS011;45426;44.726;10.390;2023-08-31T06:34:43;6.78;;;2.55;;
59607;SDS011;45426;44.726;10.390;2023-08-31T06:37:09;5.00;;;2.50;;
59607;SDS011;45426;44.726;10.390;2023-08-31T06:39:34;7.72;;;2.60;;
59607;SDS011;45426;44.726;10.390;2023-08-31T06:42:01;4.63;;;2.50;;
59607;SDS011;45426;44.726;10.390;2023-08-31T06:44:27;6.47;;;2.47;;
59607;SDS011;45426;44.726;10.390;2023-08-31T06:46:54;4.18;;;2.50;;
59607;SDS011;45426;44.726;10.390;2023-08-31T06:49:20;7.05;;;2.60;;
59607;SDS011;45426;44.726;10.390;2023-08-31T06:51:45;7.78;;;2.50;;
59607;SDS011;45426;44.726;10.390;2023-08-31T06:54:11;7.25;;;2.50;;
59607;SDS011;45426;44.726;10.390;2023-08-31T06:56:36;5.13;;;2.50;;
59607;SDS011;45426;44.726;10.390;2023-08-31T06:59:02;7.35;;;2.30;;
59607;SDS011;45426;44.726;10.390;2023-08-31T07:01:28;6.78;;;2.50;;
59607;SDS011;45426;44.726;10.390;2023-08-31T07:03:54;7.47;;;2.60;;
59607;SDS011;45426;44.726;10.390;2023-08-31T07:06:20;6.28;;;2.50;;
59607;SDS011;45426;44.726;10.390;2023-08-31T07:08:46;4.72;;;2.10;;
59607;SDS011;45426;44.726;10.390;2023-08-31T07:11:13;4.03;;;2.00;;
59607;SDS011;45426;44.726;10.390;2023-08-31T07:13:39;7.13;;;2.30;;
59607;SDS011;45426;44.726;10.390;2023-08-31T07:16:05;6.50;;;2.20;;
59607;SDS011;45426;44.726;10.390;2023-08-31T07:18:31;6.45;;;1.90;;
59607;SDS011;45426;44.726;10.390;2023-08-31T07:20:56;5.82;;;2.20;;
59607;SDS011;45426;44.726;10.390;2023-08-31T07:23:22;4.80;;;2.00;;
59607;SDS011;45426;44.726;10.390;2023-08-31T07:25:48;5.05;;;2.10;;
59607;SDS011;45426;44.726;10.390;2023-08-31T07:28:14;7.00;;;2.28;;
59607;SDS011;45426;44.726;10.390;2023-08-31T07:30:39;4.95;;;2.15;;
59607;SDS011;45426;44.726;10.390;2023-08-31T07:33:05;6.30;;;2.10;;
59607;SDS011;45426;44.726;10.390;2023-08-31T07:35:33;5.32;;;2.20;;
59607;SDS011;45426;44.726;10.390;2023-08-31T07:37:58;6.82;;;2.03;;
59607;SDS011;45426;44.726;10.390;2023-08-31T07:40:24;8.85;;;2.17;;
59607;SDS011;45426;44.726;10.390;2023-08-31T07:42:50;4.95;;;2.03;;
59607;SDS011;45426;44.726;10.390;2023-08-31T07:45:16;5.72;;;2.08;;
59607;SDS011;45426;44.726;10.390;2023-08-31T07:47:42;6.30;;;2.05;;
59607;SDS011;45426;44.726;10.390;2023-08-31T07:50:07;4.18;;;1.70;;
59607;SDS011;45426;44.726;10.390;2023-08-31T07:52:33;5.45;;;2.42;;
59607;SDS011;45426;44.726;10.390;2023-08-31T07:54:59;7.38;;;2.05;;
59607;SDS011;45426;44.726;10.390;2023-08-31T07:57:25;5.18;;;1.75;;
59607;SDS011;45426;44.726;10.390;2023-08-31T07:59:50;11.32;;;2.45;;
59607;SDS011;45426;44.726;10.390;2023-08-31T08:02:16;6.32;;;2.00;;
59607;SDS011;45426;44.726;10.390;2023-08-31T08:04:42;7.07;;;2.10;;
59607;SDS011;45426;44.726;10.390;2023-08-31T08:07:07;8.00;;;2.08;;
59607;SDS011;45426;44.726;10.390;2023-08-31T08:09:33;8.25;;;2.30;;
59607;SDS011;45426;44.726;10.390;2023-08-31T08:11:59;5.72;;;1.85;;
59607;SDS011;45426;44.726;10.390;2023-08-31T08:14:24;6.13;;;1.75;;
59607;SDS011;45426;44.726;10.390;2023-08-31T08:16:50;8.45;;;2.70;;
59607;SDS011;45426;44.726;10.390;2023-08-31T08:19:20;6.18;;;2.13;;
59607;SDS011;45426;44.726;10.390;2023-08-31T08:21:47;6.10;;;1.88;;
59607;SDS011;45426;44.726;10.390;2023-08-31T08:24:12;6.13;;;2.00;;
59607;SDS011;45426;44.726;10.390;2023-08-31T08:26:37;9.35;;;2.20;;
59607;SDS011;45426;44.726;10.390;2023-08-31T08:29:03;4.53;;;1.90;;
59607;SDS011;45426;44.726;10.390;2023-08-31T08:31:28;6.97;;;2.00;;
59607;SDS011;45426;44.726;10.390;2023-08-31T08:33:54;7.30;;;2.10;;
59607;SDS011;45426;44.726;10.390;2023-08-31T08:36:19;7.35;;;1.70;;
59607;SDS011;45426;44.726;10.390;2023-08-31T08:38:44;4.38;;;1.83;;
59607;SDS011;45426;44.726;10.390;2023-08-31T08:41:10;7.43;;;1.85;;
59607;SDS011;45426;44.726;10.390;2023-08-31T08:43:36;5.47;;;1.92;;
59607;SDS011;45426;44.726;10.390;2023-08-31T08:46:05;5.65;;;2.38;;
59607;SDS011;45426;44.726;10.390;2023-08-31T08:48:32;6.20;;;2.10;;
59607;SDS011;45426;44.726;10.390;2023-08-31T08:51:00;6.28;;;2.05;;
59607;SDS011;45426;44.726;10.390;2023-08-31T08:53:29;5.88;;;2.03;;
59607;SDS011;45426;44.726;10.390;2023-08-31T08:55:54;7.43;;;2.03;;
59607;SDS011;45426;44.726;10.390;2023-08-31T08:58:20;6.80;;;1.90;;
59607;SDS011;45426;44.726;10.390;2023-08-31T09:00:46;6.55;;;1.77;;
59607;SDS011;45426;44.726;10.390;2023-08-31T09:03:12;9.77;;;1.90;;
59607;SDS011;45426;44.726;10.390;2023-08-31T09:05:38;5.18;;;1.92;;
59607;SDS011;45426;44.726;10.390;2023-08-31T09:08:05;7.65;;;2.00;;
59607;SDS011;45426;44.726;10.390;2023-08-31T09:10:37;6.07;;;2.00;;
59607;SDS011;45426;44.726;10.390;2023-08-31T09:13:05;8.82;;;2.53;;
59607;SDS011;45426;44.726;10.390;2023-08-31T09:15:44;6.82;;;2.33;;
59607;SDS011;45426;44.726;10.390;2023-08-31T09:18:23;6.10;;;2.40;;
59607;SDS011;45426;44.726;10.390;2023-08-31T09:20:50;7.07;;;2.47;;
59607;SDS011;45426;44.726;10.390;2023-08-31T09:23:16;6.40;;;2.15;;
59607;SDS011;45426;44.726;10.390;2023-08-31T09:25:46;7.75;;;2.50;;
59607;SDS011;45426;44.726;10.390;2023-08-31T09:28:18;5.88;;;2.15;;
59607;SDS011;45426;44.726;10.390;2023-08-31T09:30:49;9.15;;;2.35;;
59607;SDS011;45426;44.726;10.390;2023-08-31T09:33:17;7.18;;;2.10;;
59607;SDS011;45426;44.726;10.390;2023-08-31T09:35:46;5.05;;;1.90;;
59607;SDS011;45426;44.726;10.390;2023-08-31T09:38:16;8.88;;;2.47;;
59607;SDS011;45426;44.726;10.390;2023-08-31T09:40:42;9.18;;;2.58;;
59607;SDS011;45426;44.726;10.390;2023-08-31T09:43:07;7.35;;;2.60;;
59607;SDS011;45426;44.726;10.390;2023-08-31T09:45:33;9.75;;;2.63;;
59607;SDS011;45426;44.726;10.390;2023-08-31T09:48:00;6.88;;;2.20;;
59607;SDS011;45426;44.726;10.390;2023-08-31T09:50:28;8.10;;;2.40;;
59607;SDS011;45426;44.726;10.390;2023-08-31T09:52:56;8.10;;;2.22;;
59607;SDS011;45426;44.726;10.390;2023-08-31T09:55:27;6.60;;;2.05;;
59607;SDS011;45426;44.726;10.390;2023-08-31T09:57:54;8.52;;;2.20;;
59607;SDS011;45426;44.726;10.390;2023-08-31T10:00:21;8.23;;;2.20;;
59607;SDS011;45426;44.726;10.390;2023-08-31T10:02:47;9.85;;;2.72;;
59607;SDS011;45426;44.726;10.390;2023-08-31T10:05:15;9.55;;;2.38;;
59607;SDS011;45426;44.726;10.390;2023-08-31T10:07:40;6.05;;;2.20;;
59607;SDS011;45426;44.726;10.390;2023-08-31T10:10:07;8.35;;;2.50;;
59607;SDS011;45426;44.726;10.390;2023-08-31T10:12:34;5.68;;;2.30;;
59607;SDS011;45426;44.726;10.390;2023-08-31T10:15:01;8.00;;;2.33;;
59607;SDS011;45426;44.726;10.390;2023-08-31T10:17:26;6.10;;;2.30;;
59607;SDS011;45426;44.726;10.390;2023-08-31T10:19:53;9.07;;;2.35;;
59607;SDS011;45426;44.726;10.390;2023-08-31T10:22:19;6.18;;;2.60;;
59607;SDS011;45426;44.726;10.390;2023-08-31T10:24:57;7.97;;;2.40;;
59607;SDS011;45426;44.726;10.390;2023-08-31T10:27:28;6.90;;;2.75;;
59607;SDS011;45426;44.726;10.390;2023-08-31T10:35:50;5.97;;;2.80;;
59607;SDS011;45426;44.726;10.390;2023-08-31T10:48:57;8.05;;;2.42;;
59607;SDS011;45426;44.726;10.390;2023-08-31T10:51:32;8.07;;;2.30;;
59607;SDS011;45426;44.726;10.390;2023-08-31T10:57:03;8.48;;;2.53;;
59607;SDS011;45426;44.726;10.390;2023-08-31T11:02:30;9.40;;;3.40;;
59607;SDS011;45426;44.726;10.390;2023-08-31T11:04:59;8.60;;;3.10;;
59607;SDS011;45426;44.726;10.390;2023-08-31T11:07:29;9.07;;;3.10;;
59607;SDS011;45426;44.726;10.390;2023-08-31T11:12:55;8.35;;;3.05;;
59607;SDS011;45426;44.726;10.390;2023-08-31T11:15:21;8.85;;;2.80;;
59607;SDS011;45426;44.726;10.390;2023-08-31T11:17:51;6.30;;;2.80;;
59607;SDS011;45426;44.726;10.390;2023-08-31T11:20:18;7.43;;;2.80;;
59607;SDS011;45426;44.726;10.390;2023-08-31T11:22:49;8.57;;;3.00;;
59607;SDS011;45426;44.726;10.390;2023-08-31T11:25:16;9.13;;;2.60;;
59607;SDS011;45426;44.726;10.390;2023-08-31T11:27:42;8.20;;;2.78;;
59607;SDS011;45426;44.726;10.390;2023-08-31T11:30:18;8.60;;;2.92;;
59607;SDS011;45426;44.726;10.390;2023-08-31T11:32:50;8.23;;;2.80;;
59607;SDS011;45426;44.726;10.390;2023-08-31T11:35:17;7.47;;;2.55;;
59607;SDS011;45426;44.726;10.390;2023-08-31T11:37:43;6.30;;;2.35;;
59607;SDS011;45426;44.726;10.390;2023-08-31T11:40:10;9.43;;;2.67;;
59607;SDS011;45426;44.726;10.390;2023-08-31T11:42:36;9.45;;;2.72;;
59607;SDS011;45426;44.726;10.390;2023-08-31T11:45:02;10.15;;;2.50;;
59607;SDS011;45426;44.726;10.390;2023-08-31T11:47:30;8.90;;;2.55;;
59607;SDS011;45426;44.726;10.390;2023-08-31T11:49:56;9.02;;;2.72;;
59607;SDS011;45426;44.726;10.390;2023-08-31T11:52:23;13.20;;;2.90;;
59607;SDS011;45426;44.726;10.390;2023-08-31T11:54:51;7.93;;;2.40;;
59607;SDS011;45426;44.726;10.390;2023-08-31T11:57:18;4.53;;;1.98;;
59607;SDS011;45426;44.726;10.390;2023-08-31T11:59:49;7.60;;;2.10;;
59607;SDS011;45426;44.726;10.390;2023-08-31T12:02:15;3.95;;;1.80;;
59607;SDS011;45426;44.726;10.390;2023-08-31T12:04:41;8.10;;;2.10;;
59607;SDS011;45426;44.726;10.390;2023-08-31T12:07:11;5.25;;;2.00;;
59607;SDS011;45426;44.726;10.390;2023-08-31T12:09:41;6.65;;;2.10;;
59607;SDS011;45426;44.726;10.390;2023-08-31T12:12:09;7.55;;;2.05;;
59607;SDS011;45426;44.726;10.390;2023-08-31T12:14:37;3.20;;;1.98;;
59607;SDS011;45426;44.726;10.390;2023-08-31T12:17:06;7.03;;;1.95;;
59607;SDS011;45426;44.726;10.390;2023-08-31T12:19:33;7.60;;;2.20;;
59607;SDS011;45426;44.726;10.390;2023-08-31T12:22:01;7.20;;;2.28;;
59607;SDS011;45426;44.726;10.390;2023-08-31T12:24:26;6.22;;;2.45;;
59607;SDS011;45426;44.726;10.390;2023-08-31T12:26:52;7.63;;;2.30;;
59607;SDS011;45426;44.726;10.390;2023-08-31T12:29:21;8.73;;;3.03;;
59607;SDS011;45426;44.726;10.390;2023-08-31T12:31:47;8.05;;;2.30;;
59607;SDS011;45426;44.726;10.390;2023-08-31T12:34:15;7.38;;;2.60;;
59607;SDS011;45426;44.726;10.390;2023-08-31T12:36:40;6.93;;;2.42;;
59607;SDS011;45426;44.726;10.390;2023-08-31T12:39:09;6.45;;;2.60;;
59607;SDS011;45426;44.726;10.390;2023-08-31T12:41:38;5.72;;;2.15;;
59607;SDS011;45426;44.726;10.390;2023-08-31T12:44:04;6.93;;;2.72;;
59607;SDS011;45426;44.726;10.390;2023-08-31T12:46:31;6.20;;;2.40;;
59607;SDS011;45426;44.726;10.390;2023-08-31T12:48:57;5.68;;;2.40;;
59607;SDS011;45426;44.726;10.390;2023-08-31T12:51:22;6.13;;;2.28;;
59607;SDS011;45426;44.726;10.390;2023-08-31T12:53:47;8.93;;;2.45;;
59607;SDS011;45426;44.726;10.390;2023-08-31T12:56:13;37.25;;;5.72;;
59607;SDS011;45426;44.726;10.390;2023-08-31T12:58:46;33.55;;;4.30;;
59607;SDS011;45426;44.726;10.390;2023-08-31T13:01:12;52.20;;;6.38;;
59607;SDS011;45426;44.726;10.390;2023-08-31T13:03:38;15.82;;;2.92;;
59607;SDS011;45426;44.726;10.390;2023-08-31T13:06:03;8.15;;;2.00;;
59607;SDS011;45426;44.726;10.390;2023-08-31T13:08:29;8.55;;;2.20;;
59607;SDS011;45426;44.726;10.390;2023-08-31T13:10:54;38.38;;;5.10;;
59607;SDS011;45426;44.726;10.390;2023-08-31T13:13:20;24.80;;;3.75;;
59607;SDS011;45426;44.726;10.390;2023-08-31T13:15:46;11.20;;;2.58;;
59607;SDS011;45426;44.726;10.390;2023-08-31T13:18:12;30.58;;;4.25;;
59607;SDS011;45426;44.726;10.390;2023-08-31T13:20:38;12.88;;;2.63;;
59607;SDS011;45426;44.726;10.390;2023-08-31T13:23:03;11.43;;;2.20;;
59607;SDS011;45426;44.726;10.390;2023-08-31T13:25:29;9.70;;;2.47;;
59607;SDS011;45426;44.726;10.390;2023-08-31T13:27:56;6.80;;;1.90;;
59607;SDS011;45426;44.726;10.390;2023-08-31T13:30:22;4.30;;;2.30;;
59607;SDS011;45426;44.726;10.390;2023-08-31T13:32:47;7.00;;;2.33;;
59607;SDS011;45426;44.726;10.390;2023-08-31T13:35:13;6.43;;;2.70;;
59607;SDS011;45426;44.726;10.390;2023-08-31T13:37:39;6.75;;;2.33;;
59607;SDS011;45426;44.726;10.390;2023-08-31T13:40:04;6.15;;;2.10;;
59607;SDS011;45426;44.726;10.390;2023-08-31T13:42:35;6.68;;;2.42;;
59607;SDS011;45426;44.726;10.390;2023-08-31T13:45:05;5.88;;;2.20;;
59607;SDS011;45426;44.726;10.390;2023-08-31T13:47:32;5.35;;;2.20;;
59607;SDS011;45426;44.726;10.390;2023-08-31T13:49:58;9.30;;;2.65;;
59607;SDS011;45426;44.726;10.390;2023-08-31T13:52:23;8.85;;;2.30;;
59607;SDS011;45426;44.726;10.390;2023-08-31T13:54:49;6.40;;;2.25;;
59607;SDS011;45426;44.726;10.390;2023-08-31T13:57:15;6.90;;;2.17;;
59607;SDS011;45426;44.726;10.390;2023-08-31T13:59:42;6.30;;;2.40;;
59607;SDS011;45426;44.726;10.390;2023-08-31T14:02:08;6.43;;;2.47;;
59607;SDS011;45426;44.726;10.390;2023-08-31T14:04:34;7.05;;;2.20;;
59607;SDS011;45426;44.726;10.390;2023-08-31T14:06:59;5.68;;;2.20;;
59607;SDS011;45426;44.726;10.390;2023-08-31T14:09:26;5.68;;;2.00;;
59607;SDS011;45426;44.726;10.390;2023-08-31T14:11:52;3.90;;;2.03;;
59607;SDS011;45426;44.726;10.390;2023-08-31T14:14:19;6.30;;;2.22;;
59607;SDS011;45426;44.726;10.390;2023-08-31T14:16:45;4.40;;;2.30;;
59607;SDS011;45426;44.726;10.390;2023-08-31T14:19:10;5.50;;;2.28;;
59607;SDS011;45426;44.726;10.390;2023-08-31T14:21:36;4.97;;;2.10;;
59607;SDS011;45426;44.726;10.390;2023-08-31T14:24:02;7.70;;;2.33;;
59607;SDS011;45426;44.726;10.390;2023-08-31T14:26:29;6.30;;;2.20;;
59607;SDS011;45426;44.726;10.390;2023-08-31T14:28:54;5.25;;;2.08;;
59607;SDS011;45426;44.726;10.390;2023-08-31T14:31:20;6.10;;;2.00;;
59607;SDS011;45426;44.726;10.390;2023-08-31T14:33:46;4.35;;;1.95;;
59607;SDS011;45426;44.726;10.390;2023-08-31T14:36:12;6.00;;;2.17;;
59607;SDS011;45426;44.726;10.390;2023-08-31T14:38:39;7.30;;;2.30;;
59607;SDS011;45426;44.726;10.390;2023-08-31T14:41:04;6.40;;;2.08;;
59607;SDS011;45426;44.726;10.390;2023-08-31T14:43:31;6.53;;;1.95;;
59607;SDS011;45426;44.726;10.390;2023-08-31T14:45:57;4.30;;;2.00;;
59607;SDS011;45426;44.726;10.390;2023-08-31T14:48:25;3.45;;;2.00;;
59607;SDS011;45426;44.726;10.390;2023-08-31T14:50:51;5.53;;;1.98;;
59607;SDS011;45426;44.726;10.390;2023-08-31T14:53:17;4.60;;;2.53;;
59607;SDS011;45426;44.726;10.390;2023-08-31T14:55:48;4.85;;;2.10;;
59607;SDS011;45426;44.726;10.390;2023-08-31T14:58:14;5.03;;;1.90;;
59607;SDS011;45426;44.726;10.390;2023-08-31T15:00:40;4.00;;;2.05;;
59607;SDS011;45426;44.726;10.390;2023-08-31T15:03:05;3.78;;;1.90;;
59607;SDS011;45426;44.726;10.390;2023-08-31T15:05:31;4.25;;;2.00;;
59607;SDS011;45426;44.726;10.390;2023-08-31T15:07:56;3.72;;;1.90;;
59607;SDS011;45426;44.726;10.390;2023-08-31T15:10:21;4.72;;;2.00;;